sensor_id;sensor_type;location;lat;lon;timestamp;pressure;altitude;pressure_sealevel;temperature;humidity
63281;BME280;49406;51.044;3.766;2023-11-19T00:00:09;101128.02;;;14.00;100.00
63281;BME280;49406;51.044;3.766;2023-11-19T00:02:45;101120.11;;;13.99;100.00
63281;BME280;49406;51.044;3.766;2023-11-19T00:05:20;101119.05;;;14.03;100.00
63281;BME280;49406;51.044;3.766;2023-11-19T00:07:55;101110.95;;;14.05;100.00
63281;BME280;49406;51.044;3.766;2023-11-19T00:10:30;101101.28;;;14.05;100.00
63281;BME280;49406;51.044;3.766;2023-11-19T00:13:04;101095.66;;;14.03;100.00
63281;BME280;49406;51.044;3.766;2023-11-19T00:15:40;101091.98;;;13.98;100.00
63281;BME280;49406;51.044;3.766;2023-11-19T00:18:15;101094.27;;;14.02;100.00
63281;BME280;49406;51.044;3.766;2023-11-19T00:20:49;101094.09;;;14.03;100.00
63281;BME280;49406;51.044;3.766;2023-11-19T00:23:24;101096.17;;;14.06;100.00
63281;BME280;49406;51.044;3.766;2023-11-19T00:25:59;101100.23;;;14.05;100.00
63281;BME280;49406;51.044;3.766;2023-11-19T00:28:33;101109.02;;;14.07;100.00
63281;BME280;49406;51.044;3.766;2023-11-19T00:31:08;101113.58;;;14.07;100.00
63281;BME280;49406;51.044;3.766;2023-11-19T00:33:43;101117.98;;;14.07;100.00
63281;BME280;49406;51.044;3.766;2023-11-19T00:36:17;101109.54;;;14.08;100.00
63281;BME280;49406;51.044;3.766;2023-11-19T00:38:52;101112.72;;;14.13;100.00
63281;BME280;49406;51.044;3.766;2023-11-19T00:41:27;101113.41;;;14.12;100.00
63281;BME280;49406;51.044;3.766;2023-11-19T00:44:01;101121.48;;;14.10;100.00
63281;BME280;49406;51.044;3.766;2023-11-19T00:46:36;101123.96;;;14.06;100.00
63281;BME280;49406;51.044;3.766;2023-11-19T00:49:10;101125.02;;;14.04;100.00
63281;BME280;49406;51.044;3.766;2023-11-19T00:51:45;101121.69;;;14.02;100.00
63281;BME280;49406;51.044;3.766;2023-11-19T00:54:20;101113.44;;;13.99;100.00
63281;BME280;49406;51.044;3.766;2023-11-19T00:56:54;101115.20;;;13.97;100.00
63281;BME280;49406;51.044;3.766;2023-11-19T00:59:30;101107.45;;;13.92;100.00
63281;BME280;49406;51.044;3.766;2023-11-19T01:02:04;101105.88;;;13.90;100.00
63281;BME280;49406;51.044;3.766;2023-11-19T01:04:39;101105.71;;;13.86;100.00
63281;BME280;49406;51.044;3.766;2023-11-19T01:07:14;101110.28;;;13.84;100.00
63281;BME280;49406;51.044;3.766;2023-11-19T01:09:49;101108.02;;;13.81;100.00
63281;BME280;49406;51.044;3.766;2023-11-19T01:12:24;101100.98;;;13.78;100.00
63281;BME280;49406;51.044;3.766;2023-11-19T01:14:58;101099.73;;;13.75;100.00
63281;BME280;49406;51.044;3.766;2023-11-19T01:17:32;101097.98;;;13.73;100.00
63281;BME280;49406;51.044;3.766;2023-11-19T01:20:09;101096.94;;;13.71;100.00
63281;BME280;49406;51.044;3.766;2023-11-19T01:22:46;101099.39;;;13.72;100.00
63281;BME280;49406;51.044;3.766;2023-11-19T01:25:21;101104.31;;;13.69;100.00
63281;BME280;49406;51.044;3.766;2023-11-19T01:27:56;101108.71;;;13.67;100.00
63281;BME280;49406;51.044;3.766;2023-11-19T01:30:31;101103.27;;;13.65;100.00
63281;BME280;49406;51.044;3.766;2023-11-19T01:33:06;101105.21;;;13.64;100.00
63281;BME280;49406;51.044;3.766;2023-11-19T01:35:41;101102.21;;;13.70;100.00
63281;BME280;49406;51.044;3.766;2023-11-19T01:38:15;101093.42;;;13.71;100.00
63281;BME280;49406;51.044;3.766;2023-11-19T01:40:50;101084.83;;;13.65;100.00
63281;BME280;49406;51.044;3.766;2023-11-19T01:43:34;101082.55;;;13.62;100.00
63281;BME280;49406;51.044;3.766;2023-11-19T01:46:09;101091.67;;;13.58;100.00
63281;BME280;49406;51.044;3.766;2023-11-19T01:48:46;101085.70;;;13.53;100.00
63281;BME280;49406;51.044;3.766;2023-11-19T01:51:23;101088.34;;;13.52;100.00
63281;BME280;49406;51.044;3.766;2023-11-19T01:53:58;101092.36;;;13.42;100.00
63281;BME280;49406;51.044;3.766;2023-11-19T01:56:33;101095.00;;;13.37;100.00
63281;BME280;49406;51.044;3.766;2023-11-19T01:59:08;101097.64;;;13.34;100.00
63281;BME280;49406;51.044;3.766;2023-11-19T02:01:44;101091.33;;;13.28;100.00
63281;BME280;49406;51.044;3.766;2023-11-19T02:04:19;101086.39;;;13.26;100.00
63281;BME280;49406;51.044;3.766;2023-11-19T02:06:55;101084.62;;;13.22;100.00
63281;BME280;49406;51.044;3.766;2023-11-19T02:09:31;101087.09;;;13.19;100.00
63281;BME280;49406;51.044;3.766;2023-11-19T02:12:06;101078.63;;;13.15;100.00
63281;BME280;49406;51.044;3.766;2023-11-19T02:14:42;101082.66;;;13.13;100.00
63281;BME280;49406;51.044;3.766;2023-11-19T02:17:30;101080.38;;;13.11;100.00
63281;BME280;49406;51.044;3.766;2023-11-19T02:20:07;101080.73;;;13.10;100.00
63281;BME280;49406;51.044;3.766;2023-11-19T02:22:41;101082.48;;;13.12;100.00
63281;BME280;49406;51.044;3.766;2023-11-19T02:25:19;101088.27;;;13.13;100.00
63281;BME280;49406;51.044;3.766;2023-11-19T02:27:55;101093.20;;;13.13;100.00
63281;BME280;49406;51.044;3.766;2023-11-19T02:30:31;101089.52;;;13.13;100.00
63281;BME280;49406;51.044;3.766;2023-11-19T02:33:06;101085.30;;;13.13;100.00
63281;BME280;49406;51.044;3.766;2023-11-19T02:35:40;101084.59;;;13.13;100.00
63281;BME280;49406;51.044;3.766;2023-11-19T02:38:15;101085.81;;;13.10;100.00
63281;BME280;49406;51.044;3.766;2023-11-19T02:40:50;101085.45;;;13.10;100.00
63281;BME280;49406;51.044;3.766;2023-11-19T02:43:24;101079.85;;;13.11;100.00
63281;BME280;49406;51.044;3.766;2023-11-19T02:45:59;101078.27;;;13.15;100.00
63281;BME280;49406;51.044;3.766;2023-11-19T02:48:34;101078.81;;;13.17;100.00
63281;BME280;49406;51.044;3.766;2023-11-19T02:51:09;101079.01;;;13.18;100.00
63281;BME280;49406;51.044;3.766;2023-11-19T02:53:44;101076.70;;;13.14;100.00
63281;BME280;49406;51.044;3.766;2023-11-19T02:56:21;101076.33;;;13.10;100.00
63281;BME280;49406;51.044;3.766;2023-11-19T02:58:59;101068.06;;;13.07;100.00
63281;BME280;49406;51.044;3.766;2023-11-19T03:01:36;101063.33;;;13.04;100.00
63281;BME280;49406;51.044;3.766;2023-11-19T03:04:15;101059.83;;;13.02;100.00
63281;BME280;49406;51.044;3.766;2023-11-19T03:06:53;101058.59;;;13.06;100.00
63281;BME280;49406;51.044;3.766;2023-11-19T03:09:28;101054.20;;;13.08;100.00
63281;BME280;49406;51.044;3.766;2023-11-19T03:12:04;101053.34;;;13.11;100.00
63281;BME280;49406;51.044;3.766;2023-11-19T03:14:39;101053.52;;;13.12;100.00
63281;BME280;49406;51.044;3.766;2023-11-19T03:17:14;101055.63;;;13.13;100.00
63281;BME280;49406;51.044;3.766;2023-11-19T03:19:49;101058.27;;;13.11;100.00
63281;BME280;49406;51.044;3.766;2023-11-19T03:22:23;101059.47;;;13.06;100.00
63281;BME280;49406;51.044;3.766;2023-11-19T03:24:58;101066.14;;;13.03;100.00
63281;BME280;49406;51.044;3.766;2023-11-19T03:27:33;101072.98;;;13.01;100.00
63281;BME280;49406;51.044;3.766;2023-11-19T03:30:10;101070.16;;;12.93;100.00
63281;BME280;49406;51.044;3.766;2023-11-19T03:32:45;101070.83;;;12.88;100.00
63281;BME280;49406;51.044;3.766;2023-11-19T03:35:19;101075.74;;;12.82;100.00
63281;BME280;49406;51.044;3.766;2023-11-19T03:37:54;101078.35;;;12.76;100.00
63281;BME280;49406;51.044;3.766;2023-11-19T03:40:29;101088.55;;;12.77;100.00
63281;BME280;49406;51.044;3.766;2023-11-19T03:43:03;101091.50;;;12.75;100.00
63281;BME280;49406;51.044;3.766;2023-11-19T03:45:38;101089.73;;;12.71;100.00
63281;BME280;49406;51.044;3.766;2023-11-19T03:48:13;101098.14;;;12.63;100.00
63281;BME280;49406;51.044;3.766;2023-11-19T03:50:49;101104.95;;;12.59;100.00
63281;BME280;49406;51.044;3.766;2023-11-19T03:53:24;101105.98;;;12.58;100.00
63281;BME280;49406;51.044;3.766;2023-11-19T03:55:58;101109.14;;;12.57;100.00
63281;BME280;49406;51.044;3.766;2023-11-19T03:58:33;101111.26;;;12.59;100.00
63281;BME280;49406;51.044;3.766;2023-11-19T04:01:12;101107.04;;;12.58;100.00
63281;BME280;49406;51.044;3.766;2023-11-19T04:03:47;101108.27;;;12.55;100.00
63281;BME280;49406;51.044;3.766;2023-11-19T04:06:22;101114.05;;;12.54;100.00
63281;BME280;49406;51.044;3.766;2023-11-19T04:08:56;101119.33;;;12.54;100.00
63281;BME280;49406;51.044;3.766;2023-11-19T04:11:31;101118.08;;;12.52;100.00
63281;BME280;49406;51.044;3.766;2023-11-19T04:14:06;101119.80;;;12.45;100.00
63281;BME280;49406;51.044;3.766;2023-11-19T04:16:40;101125.91;;;12.41;100.00
63281;BME280;49406;51.044;3.766;2023-11-19T04:19:15;101131.70;;;12.41;100.00
63281;BME280;49406;51.044;3.766;2023-11-19T04:21:49;101130.98;;;12.40;100.00
63281;BME280;49406;51.044;3.766;2023-11-19T04:24:24;101129.40;;;12.36;100.00
63281;BME280;49406;51.044;3.766;2023-11-19T04:26:58;101131.50;;;12.34;100.00
63281;BME280;49406;51.044;3.766;2023-11-19T04:29:33;101134.09;;;12.28;100.00
63281;BME280;49406;51.044;3.766;2023-11-19T04:32:08;101139.31;;;12.22;100.00
63281;BME280;49406;51.044;3.766;2023-11-19T04:34:42;101138.75;;;12.17;100.00
63281;BME280;49406;51.044;3.766;2023-11-19T04:37:17;101138.74;;;12.14;100.00
63281;BME280;49406;51.044;3.766;2023-11-19T04:39:51;101137.33;;;12.12;100.00
63281;BME280;49406;51.044;3.766;2023-11-19T04:42:24;101135.39;;;12.11;100.00
63281;BME280;49406;51.044;3.766;2023-11-19T04:44:59;101132.58;;;12.10;100.00
63281;BME280;49406;51.044;3.766;2023-11-19T04:47:33;101134.65;;;12.08;100.00
63281;BME280;49406;51.044;3.766;2023-11-19T04:50:09;101132.01;;;12.06;100.00
63281;BME280;49406;51.044;3.766;2023-11-19T04:52:45;101133.40;;;12.02;100.00
63281;BME280;49406;51.044;3.766;2023-11-19T04:55:19;101133.39;;;12.00;100.00
63281;BME280;49406;51.044;3.766;2023-11-19T04:57:56;101132.13;;;11.96;100.00
63281;BME280;49406;51.044;3.766;2023-11-19T05:00:31;101130.20;;;11.95;100.00
63281;BME280;49406;51.044;3.766;2023-11-19T05:03:06;101125.63;;;11.92;100.00
63281;BME280;49406;51.044;3.766;2023-11-19T05:05:41;101122.77;;;11.87;100.00
63281;BME280;49406;51.044;3.766;2023-11-19T05:08:16;101125.73;;;11.83;100.00
63281;BME280;49406;51.044;3.766;2023-11-19T05:10:50;101127.07;;;11.78;100.00
63281;BME280;49406;51.044;3.766;2023-11-19T05:13:25;101131.75;;;11.75;100.00
63281;BME280;49406;51.044;3.766;2023-11-19T05:16:00;101132.61;;;11.74;100.00
63281;BME280;49406;51.044;3.766;2023-11-19T05:18:34;101131.73;;;11.73;100.00
63281;BME280;49406;51.044;3.766;2023-11-19T05:21:09;101129.97;;;11.70;100.00
63281;BME280;49406;51.044;3.766;2023-11-19T05:23:44;101125.20;;;11.63;100.00
63281;BME280;49406;51.044;3.766;2023-11-19T05:26:20;101118.45;;;11.56;100.00
63281;BME280;49406;51.044;3.766;2023-11-19T05:28:56;101117.28;;;11.59;100.00
63281;BME280;49406;51.044;3.766;2023-11-19T05:31:30;101118.64;;;11.57;100.00
63281;BME280;49406;51.044;3.766;2023-11-19T05:34:05;101120.71;;;11.53;100.00
63281;BME280;49406;51.044;3.766;2023-11-19T05:36:40;101125.27;;;11.52;100.00
63281;BME280;49406;51.044;3.766;2023-11-19T05:39:15;101132.09;;;11.52;100.00
63281;BME280;49406;51.044;3.766;2023-11-19T05:41:50;101133.86;;;11.55;100.00
63281;BME280;49406;51.044;3.766;2023-11-19T05:44:24;101124.08;;;11.56;100.00
63281;BME280;49406;51.044;3.766;2023-11-19T05:46:59;101135.88;;;11.63;100.00
63281;BME280;49406;51.044;3.766;2023-11-19T05:49:33;101133.46;;;11.70;100.00
63281;BME280;49406;51.044;3.766;2023-11-19T05:52:08;101124.89;;;11.70;100.00
63281;BME280;49406;51.044;3.766;2023-11-19T05:54:44;101122.73;;;11.62;100.00
63281;BME280;49406;51.044;3.766;2023-11-19T05:57:20;101120.55;;;11.56;100.00
63281;BME280;49406;51.044;3.766;2023-11-19T05:59:58;101121.80;;;11.56;100.00
63281;BME280;49406;51.044;3.766;2023-11-19T06:02:33;101130.01;;;11.55;100.00
63281;BME280;49406;51.044;3.766;2023-11-19T06:05:11;101128.75;;;11.50;100.00
63281;BME280;49406;51.044;3.766;2023-11-19T06:07:46;101129.96;;;11.50;100.00
63281;BME280;49406;51.044;3.766;2023-11-19T06:10:20;101129.09;;;11.48;100.00
63281;BME280;49406;51.044;3.766;2023-11-19T06:12:55;101131.19;;;11.47;100.00
63281;BME280;49406;51.044;3.766;2023-11-19T06:15:30;101126.27;;;11.45;100.00
63281;BME280;49406;51.044;3.766;2023-11-19T06:18:06;101121.53;;;11.44;100.00
63281;BME280;49406;51.044;3.766;2023-11-19T06:20:41;101120.45;;;11.42;100.00
63281;BME280;49406;51.044;3.766;2023-11-19T06:23:16;101122.73;;;11.43;100.00
63281;BME280;49406;51.044;3.766;2023-11-19T06:25:51;101120.06;;;11.40;100.00
63281;BME280;49406;51.044;3.766;2023-11-19T06:28:26;101124.59;;;11.37;100.00
63281;BME280;49406;51.044;3.766;2023-11-19T06:31:01;101123.36;;;11.36;100.00
63281;BME280;49406;51.044;3.766;2023-11-19T06:33:35;101124.39;;;11.34;100.00
63281;BME280;49406;51.044;3.766;2023-11-19T06:36:13;101125.23;;;11.30;100.00
63281;BME280;49406;51.044;3.766;2023-11-19T06:38:49;101128.14;;;11.23;100.00
63281;BME280;49406;51.044;3.766;2023-11-19T06:41:24;101132.27;;;11.16;100.00
63281;BME280;49406;51.044;3.766;2023-11-19T06:43:58;101136.12;;;11.15;100.00
63281;BME280;49406;51.044;3.766;2023-11-19T06:46:33;101135.60;;;11.16;100.00
63281;BME280;49406;51.044;3.766;2023-11-19T06:49:08;101131.70;;;11.11;100.00
63281;BME280;49406;51.044;3.766;2023-11-19T06:51:42;101134.12;;;11.08;100.00
63281;BME280;49406;51.044;3.766;2023-11-19T06:54:17;101134.96;;;11.07;100.00
63281;BME280;49406;51.044;3.766;2023-11-19T06:56:51;101139.33;;;11.06;100.00
63281;BME280;49406;51.044;3.766;2023-11-19T06:59:26;101150.52;;;11.04;100.00
63281;BME280;49406;51.044;3.766;2023-11-19T07:02:02;101145.44;;;11.04;100.00
63281;BME280;49406;51.044;3.766;2023-11-19T07:04:38;101142.83;;;11.07;100.00
63281;BME280;49406;51.044;3.766;2023-11-19T07:07:12;101139.71;;;11.08;100.00
63281;BME280;49406;51.044;3.766;2023-11-19T07:09:48;101131.16;;;11.10;100.00
63281;BME280;49406;51.044;3.766;2023-11-19T07:12:23;101133.50;;;11.16;100.00
63281;BME280;49406;51.044;3.766;2023-11-19T07:14:59;101134.42;;;11.22;100.00
63281;BME280;49406;51.044;3.766;2023-11-19T07:17:35;101132.67;;;11.23;100.00
63281;BME280;49406;51.044;3.766;2023-11-19T07:20:11;101133.91;;;11.24;100.00
63281;BME280;49406;51.044;3.766;2023-11-19T07:22:48;101142.20;;;11.27;100.00
63281;BME280;49406;51.044;3.766;2023-11-19T07:25:23;101136.42;;;11.28;100.00
63281;BME280;49406;51.044;3.766;2023-11-19T07:27:57;101141.85;;;11.28;100.00
63281;BME280;49406;51.044;3.766;2023-11-19T07:30:32;101139.06;;;11.30;100.00
63281;BME280;49406;51.044;3.766;2023-11-19T07:33:07;101150.34;;;11.38;100.00
63281;BME280;49406;51.044;3.766;2023-11-19T07:35:42;101154.80;;;11.47;100.00
63281;BME280;49406;51.044;3.766;2023-11-19T07:38:17;101151.36;;;11.54;100.00
63281;BME280;49406;51.044;3.766;2023-11-19T07:40:51;101156.36;;;11.62;100.00
63281;BME280;49406;51.044;3.766;2023-11-19T07:43:26;101155.17;;;11.67;100.00
63281;BME280;49406;51.044;3.766;2023-11-19T07:46:00;101158.34;;;11.69;100.00
63281;BME280;49406;51.044;3.766;2023-11-19T07:48:37;101154.31;;;11.69;100.00
63281;BME280;49406;51.044;3.766;2023-11-19T07:51:12;101156.94;;;11.71;100.00
63281;BME280;49406;51.044;3.766;2023-11-19T07:53:46;101159.77;;;11.73;100.00
63281;BME280;49406;51.044;3.766;2023-11-19T07:56:22;101161.96;;;11.81;100.00
63281;BME280;49406;51.044;3.766;2023-11-19T07:58:57;101158.33;;;11.86;100.00
63281;BME280;49406;51.044;3.766;2023-11-19T08:01:31;101159.39;;;11.88;100.00
63281;BME280;49406;51.044;3.766;2023-11-19T08:04:06;101160.63;;;11.90;100.00
63281;BME280;49406;51.044;3.766;2023-11-19T08:06:39;101158.34;;;11.88;100.00
63281;BME280;49406;51.044;3.766;2023-11-19T08:09:13;101163.42;;;11.89;100.00
63281;BME280;49406;51.044;3.766;2023-11-19T08:11:48;101163.63;;;11.92;100.00
63281;BME280;49406;51.044;3.766;2023-11-19T08:14:23;101171.02;;;11.95;100.00
63281;BME280;49406;51.044;3.766;2023-11-19T08:16:57;101174.91;;;11.99;100.00
63281;BME280;49406;51.044;3.766;2023-11-19T08:19:32;101171.77;;;12.03;100.00
63281;BME280;49406;51.044;3.766;2023-11-19T08:22:07;101164.95;;;12.05;100.00
63281;BME280;49406;51.044;3.766;2023-11-19T08:24:43;101167.94;;;12.06;100.00
63281;BME280;49406;51.044;3.766;2023-11-19T08:27:17;101169.70;;;12.07;100.00
63281;BME280;49406;51.044;3.766;2023-11-19T08:29:50;101166.02;;;12.07;100.00
63281;BME280;49406;51.044;3.766;2023-11-19T08:32:25;101164.86;;;12.14;100.00
63281;BME280;49406;51.044;3.766;2023-11-19T08:35:00;101164.88;;;12.20;100.00
63281;BME280;49406;51.044;3.766;2023-11-19T08:37:35;101167.93;;;12.28;100.00
63281;BME280;49406;51.044;3.766;2023-11-19T08:40:12;101173.77;;;12.40;100.00
63281;BME280;49406;51.044;3.766;2023-11-19T08:42:48;101173.15;;;12.52;100.00
63281;BME280;49406;51.044;3.766;2023-11-19T08:45:23;101166.92;;;12.67;100.00
63281;BME280;49406;51.044;3.766;2023-11-19T08:47:58;101166.45;;;12.81;100.00
63281;BME280;49406;51.044;3.766;2023-11-19T08:50:32;101173.35;;;12.94;100.00
63281;BME280;49406;51.044;3.766;2023-11-19T08:53:08;101170.21;;;12.98;100.00
63281;BME280;49406;51.044;3.766;2023-11-19T08:55:42;101166.35;;;13.03;100.00
63281;BME280;49406;51.044;3.766;2023-11-19T08:58:17;101176.19;;;13.07;100.00
63281;BME280;49406;51.044;3.766;2023-11-19T09:00:52;101177.10;;;13.14;100.00
63281;BME280;49406;51.044;3.766;2023-11-19T09:03:26;101174.52;;;13.23;100.00
63281;BME280;49406;51.044;3.766;2023-11-19T09:06:03;101175.77;;;13.30;100.00
63281;BME280;49406;51.044;3.766;2023-11-19T09:08:38;101174.20;;;13.37;100.00
63281;BME280;49406;51.044;3.766;2023-11-19T09:11:12;101170.86;;;13.40;100.00
63281;BME280;49406;51.044;3.766;2023-11-19T09:13:47;101173.88;;;13.46;100.00
63281;BME280;49406;51.044;3.766;2023-11-19T09:16:21;101177.05;;;13.50;100.00
63281;BME280;49406;51.044;3.766;2023-11-19T09:18:56;101176.52;;;13.56;100.00
63281;BME280;49406;51.044;3.766;2023-11-19T09:21:31;101171.41;;;13.56;100.00
63281;BME280;49406;51.044;3.766;2023-11-19T09:24:08;101165.45;;;13.47;100.00
63281;BME280;49406;51.044;3.766;2023-11-19T09:26:42;101167.38;;;13.44;100.00
63281;BME280;49406;51.044;3.766;2023-11-19T09:29:17;101163.14;;;13.38;100.00
63281;BME280;49406;51.044;3.766;2023-11-19T09:31:53;101162.59;;;13.25;100.00
63281;BME280;49406;51.044;3.766;2023-11-19T09:34:30;101170.41;;;13.09;100.00
63281;BME280;49406;51.044;3.766;2023-11-19T09:37:05;101161.96;;;12.99;100.00
63281;BME280;49406;51.044;3.766;2023-11-19T09:39:39;101167.54;;;12.90;100.00
63281;BME280;49406;51.044;3.766;2023-11-19T09:42:16;101160.84;;;12.84;100.00
63281;BME280;49406;51.044;3.766;2023-11-19T09:44:52;101158.91;;;12.85;100.00
63281;BME280;49406;51.044;3.766;2023-11-19T09:47:28;101166.14;;;12.93;100.00
63281;BME280;49406;51.044;3.766;2023-11-19T09:50:03;101157.58;;;13.02;100.00
63281;BME280;49406;51.044;3.766;2023-11-19T09:52:36;101161.34;;;13.19;100.00
63281;BME280;49406;51.044;3.766;2023-11-19T09:55:11;101168.07;;;13.40;100.00
63281;BME280;49406;51.044;3.766;2023-11-19T09:57:46;101165.80;;;13.50;100.00
63281;BME280;49406;51.044;3.766;2023-11-19T10:00:23;101158.42;;;13.50;100.00
63281;BME280;49406;51.044;3.766;2023-11-19T10:02:58;101158.42;;;13.47;100.00
63281;BME280;49406;51.044;3.766;2023-11-19T10:05:33;101160.50;;;13.42;100.00
63281;BME280;49406;51.044;3.766;2023-11-19T10:08:08;101171.39;;;13.38;100.00
63281;BME280;49406;51.044;3.766;2023-11-19T10:10:44;101175.25;;;13.30;100.00
63281;BME280;49406;51.044;3.766;2023-11-19T10:13:18;101174.84;;;13.17;100.00
63281;BME280;49406;51.044;3.766;2023-11-19T10:15:54;101187.61;;;13.10;100.00
63281;BME280;49406;51.044;3.766;2023-11-19T10:18:30;101177.06;;;13.03;100.00
63281;BME280;49406;51.044;3.766;2023-11-19T10:21:13;101179.69;;;12.97;100.00
63281;BME280;49406;51.044;3.766;2023-11-19T10:23:51;101178.77;;;12.91;100.00
63281;BME280;49406;51.044;3.766;2023-11-19T10:26:27;101187.00;;;12.88;100.00
63281;BME280;49406;51.044;3.766;2023-11-19T10:29:02;101181.56;;;12.87;100.00
63281;BME280;49406;51.044;3.766;2023-11-19T10:31:37;101170.16;;;12.88;100.00
63281;BME280;49406;51.044;3.766;2023-11-19T10:34:26;101170.20;;;12.97;100.00
63281;BME280;49406;51.044;3.766;2023-11-19T10:37:00;101168.81;;;13.05;100.00
63281;BME280;49406;51.044;3.766;2023-11-19T10:39:52;101166.73;;;13.11;100.00
63281;BME280;49406;51.044;3.766;2023-11-19T10:42:28;101161.15;;;13.19;100.00
63281;BME280;49406;51.044;3.766;2023-11-19T10:45:03;101156.64;;;13.30;100.00
63281;BME280;49406;51.044;3.766;2023-11-19T10:47:39;101151.37;;;13.35;100.00
63281;BME280;49406;51.044;3.766;2023-11-19T10:50:14;101145.05;;;13.35;100.00
63281;BME280;49406;51.044;3.766;2023-11-19T10:52:50;101141.89;;;13.35;100.00
63281;BME280;49406;51.044;3.766;2023-11-19T10:55:28;101145.92;;;13.39;100.00
63281;BME280;49406;51.044;3.766;2023-11-19T10:58:04;101136.63;;;13.41;100.00
63281;BME280;49406;51.044;3.766;2023-11-19T11:00:45;101136.47;;;13.48;100.00
63281;BME280;49406;51.044;3.766;2023-11-19T11:03:22;101131.55;;;13.52;100.00
63281;BME280;49406;51.044;3.766;2023-11-19T11:05:58;101121.54;;;13.60;100.00
63281;BME280;49406;51.044;3.766;2023-11-19T11:08:37;101110.31;;;13.63;100.00
63281;BME280;49406;51.044;3.766;2023-11-19T11:11:15;101112.40;;;13.67;100.00
63281;BME280;49406;51.044;3.766;2023-11-19T11:13:51;101109.41;;;13.73;100.00
63281;BME280;49406;51.044;3.766;2023-11-19T11:16:27;101102.20;;;13.77;100.00
63281;BME280;49406;51.044;3.766;2023-11-19T11:19:05;101103.25;;;13.85;100.00
63281;BME280;49406;51.044;3.766;2023-11-19T11:21:41;101111.16;;;13.96;100.00
63281;BME280;49406;51.044;3.766;2023-11-19T11:24:34;101103.75;;;14.08;100.00
63281;BME280;49406;51.044;3.766;2023-11-19T11:27:38;101106.38;;;14.17;100.00
63281;BME280;49406;51.044;3.766;2023-11-19T11:30:24;101111.83;;;14.13;100.00
63281;BME280;49406;51.044;3.766;2023-11-19T11:33:10;101109.00;;;14.08;100.00
63281;BME280;49406;51.044;3.766;2023-11-19T11:35:55;101098.14;;;13.98;100.00
63281;BME280;49406;51.044;3.766;2023-11-19T11:38:37;101090.97;;;13.76;100.00
63281;BME280;49406;51.044;3.766;2023-11-19T11:41:19;101091.33;;;13.64;100.00
63281;BME280;49406;51.044;3.766;2023-11-19T11:43:55;101078.33;;;13.52;100.00
63281;BME280;49406;51.044;3.766;2023-11-19T11:49:26;101088.70;;;13.32;100.00
63281;BME280;49406;51.044;3.766;2023-11-19T11:52:06;101094.28;;;13.25;100.00
63281;BME280;49406;51.044;3.766;2023-11-19T11:54:42;101102.71;;;13.19;100.00
63281;BME280;49406;51.044;3.766;2023-11-19T11:57:17;101111.45;;;13.13;100.00
63281;BME280;49406;51.044;3.766;2023-11-19T11:59:52;101122.67;;;13.10;100.00
63281;BME280;49406;51.044;3.766;2023-11-19T12:02:26;101124.44;;;13.13;100.00
63281;BME280;49406;51.044;3.766;2023-11-19T12:05:01;101117.24;;;13.14;100.00
63281;BME280;49406;51.044;3.766;2023-11-19T12:07:39;101115.11;;;13.09;100.00
63281;BME280;49406;51.044;3.766;2023-11-19T12:10:14;101113.17;;;13.07;100.00
63281;BME280;49406;51.044;3.766;2023-11-19T12:12:49;101107.21;;;13.07;100.00
63281;BME280;49406;51.044;3.766;2023-11-19T12:15:27;101104.77;;;13.10;100.00
63281;BME280;49406;51.044;3.766;2023-11-19T12:18:01;101105.48;;;13.15;100.00
63281;BME280;49406;51.044;3.766;2023-11-19T12:20:36;101098.33;;;13.25;100.00
63281;BME280;49406;51.044;3.766;2023-11-19T12:23:12;101095.70;;;13.37;100.00
63281;BME280;49406;51.044;3.766;2023-11-19T12:25:49;101084.84;;;13.47;100.00
63281;BME280;49406;51.044;3.766;2023-11-19T12:28:23;101075.51;;;13.58;100.00
63281;BME280;49406;51.044;3.766;2023-11-19T12:31:10;101083.25;;;13.64;100.00
63281;BME280;49406;51.044;3.766;2023-11-19T12:33:45;101078.85;;;13.68;100.00
63281;BME280;49406;51.044;3.766;2023-11-19T12:36:21;101081.13;;;13.66;100.00
63281;BME280;49406;51.044;3.766;2023-11-19T12:38:56;101083.95;;;13.64;100.00
63281;BME280;49406;51.044;3.766;2023-11-19T12:41:31;101089.38;;;13.60;100.00
63281;BME280;49406;51.044;3.766;2023-11-19T12:44:13;101081.14;;;13.48;100.00
63281;BME280;49406;51.044;3.766;2023-11-19T12:47:00;101083.77;;;13.40;100.00
63281;BME280;49406;51.044;3.766;2023-11-19T12:49:35;101086.23;;;13.33;100.00
63281;BME280;49406;51.044;3.766;2023-11-19T12:52:16;101087.46;;;13.29;100.00
63281;BME280;49406;51.044;3.766;2023-11-19T12:54:51;101087.45;;;13.26;100.00
63281;BME280;49406;51.044;3.766;2023-11-19T12:57:37;101087.09;;;13.29;100.00
63281;BME280;49406;51.044;3.766;2023-11-19T13:00:22;101089.56;;;13.30;100.00
63281;BME280;49406;51.044;3.766;2023-11-19T13:02:57;101088.51;;;13.32;100.00
63281;BME280;49406;51.044;3.766;2023-11-19T13:05:33;101091.14;;;13.35;100.00
63281;BME280;49406;51.044;3.766;2023-11-19T13:08:10;101085.69;;;13.40;100.00
63281;BME280;49406;51.044;3.766;2023-11-19T13:10:53;101076.02;;;13.43;100.00
63281;BME280;49406;51.044;3.766;2023-11-19T13:13:28;101077.61;;;13.42;100.00
63281;BME280;49406;51.044;3.766;2023-11-19T13:16:06;101076.39;;;13.43;100.00
63281;BME280;49406;51.044;3.766;2023-11-19T13:18:42;101076.92;;;13.48;100.00
63281;BME280;49406;51.044;3.766;2023-11-19T13:21:17;101078.67;;;13.55;100.00
63281;BME280;49406;51.044;3.766;2023-11-19T13:23:51;101076.03;;;13.59;100.00
63281;BME280;49406;51.044;3.766;2023-11-19T13:26:25;101065.31;;;13.60;100.00